sensor_id;sensor_type;location;lat;lon;timestamp;P1;durP1;ratioP1;P2;durP2;ratioP2
32780;SDS011;19136;47.032;15.502;2024-03-06T00:01:57;32.35;;;12.98;;
32780;SDS011;19136;47.032;15.502;2024-03-06T00:04:22;29.27;;;13.75;;
32780;SDS011;19136;47.032;15.502;2024-03-06T00:06:48;24.45;;;12.95;;
32780;SDS011;19136;47.032;15.502;2024-03-06T00:09:14;32.53;;;14.50;;
32780;SDS011;19136;47.032;15.502;2024-03-06T00:11:39;52.53;;;21.92;;
32780;SDS011;19136;47.032;15.502;2024-03-06T00:14:05;52.38;;;22.30;;
32780;SDS011;19136;47.032;15.502;2024-03-06T00:16:32;52.58;;;21.98;;
32780;SDS011;19136;47.032;15.502;2024-03-06T00:18:57;41.70;;;18.92;;
32780;SDS011;19136;47.032;15.502;2024-03-06T00:21:23;42.42;;;17.38;;
32780;SDS011;19136;47.032;15.502;2024-03-06T00:23:48;40.92;;;16.35;;
32780;SDS011;19136;47.032;15.502;2024-03-06T00:26:13;34.47;;;15.98;;
32780;SDS011;19136;47.032;15.502;2024-03-06T00:28:39;41.40;;;17.35;;
32780;SDS011;19136;47.032;15.502;2024-03-06T00:31:05;43.20;;;16.42;;
32780;SDS011;19136;47.032;15.502;2024-03-06T00:33:30;34.47;;;16.25;;
32780;SDS011;19136;47.032;15.502;2024-03-06T00:35:56;34.95;;;15.05;;
32780;SDS011;19136;47.032;15.502;2024-03-06T00:38:24;36.45;;;16.67;;
32780;SDS011;19136;47.032;15.502;2024-03-06T00:40:50;35.30;;;15.77;;
32780;SDS011;19136;47.032;15.502;2024-03-06T00:43:15;33.13;;;15.13;;
32780;SDS011;19136;47.032;15.502;2024-03-06T00:45:40;33.88;;;15.63;;
32780;SDS011;19136;47.032;15.502;2024-03-06T00:48:06;34.30;;;15.45;;
32780;SDS011;19136;47.032;15.502;2024-03-06T00:50:32;37.75;;;15.25;;
32780;SDS011;19136;47.032;15.502;2024-03-06T00:52:57;34.47;;;15.23;;
32780;SDS011;19136;47.032;15.502;2024-03-06T00:55:23;38.17;;;16.70;;
32780;SDS011;19136;47.032;15.502;2024-03-06T00:57:48;38.95;;;16.85;;
32780;SDS011;19136;47.032;15.502;2024-03-06T01:00:14;32.72;;;16.00;;
32780;SDS011;19136;47.032;15.502;2024-03-06T01:02:41;42.15;;;18.95;;
32780;SDS011;19136;47.032;15.502;2024-03-06T01:05:06;37.05;;;16.42;;
32780;SDS011;19136;47.032;15.502;2024-03-06T01:07:32;37.80;;;16.52;;
32780;SDS011;19136;47.032;15.502;2024-03-06T01:09:58;35.70;;;16.38;;
32780;SDS011;19136;47.032;15.502;2024-03-06T01:12:24;37.78;;;16.75;;
32780;SDS011;19136;47.032;15.502;2024-03-06T01:14:50;40.40;;;17.50;;
32780;SDS011;19136;47.032;15.502;2024-03-06T01:17:15;34.92;;;16.38;;
32780;SDS011;19136;47.032;15.502;2024-03-06T01:19:41;40.35;;;18.13;;
32780;SDS011;19136;47.032;15.502;2024-03-06T01:22:08;40.55;;;17.80;;
32780;SDS011;19136;47.032;15.502;2024-03-06T01:24:34;37.88;;;17.95;;
32780;SDS011;19136;47.032;15.502;2024-03-06T01:26:59;41.45;;;18.60;;
32780;SDS011;19136;47.032;15.502;2024-03-06T01:29:30;39.83;;;18.27;;
32780;SDS011;19136;47.032;15.502;2024-03-06T01:31:56;43.30;;;18.38;;
32780;SDS011;19136;47.032;15.502;2024-03-06T01:34:21;44.50;;;18.23;;
32780;SDS011;19136;47.032;15.502;2024-03-06T01:36:47;43.75;;;18.63;;
32780;SDS011;19136;47.032;15.502;2024-03-06T01:39:13;43.50;;;18.55;;
32780;SDS011;19136;47.032;15.502;2024-03-06T01:41:44;40.70;;;18.40;;
32780;SDS011;19136;47.032;15.502;2024-03-06T01:44:09;38.88;;;18.45;;
32780;SDS011;19136;47.032;15.502;2024-03-06T01:46:35;47.65;;;19.55;;
32780;SDS011;19136;47.032;15.502;2024-03-06T01:49:00;37.22;;;17.70;;
32780;SDS011;19136;47.032;15.502;2024-03-06T01:51:26;40.17;;;18.75;;
32780;SDS011;19136;47.032;15.502;2024-03-06T01:53:51;38.85;;;17.13;;
32780;SDS011;19136;47.032;15.502;2024-03-06T01:56:17;39.00;;;17.48;;
32780;SDS011;19136;47.032;15.502;2024-03-06T01:58:42;44.35;;;18.30;;
32780;SDS011;19136;47.032;15.502;2024-03-06T02:01:11;39.17;;;19.08;;
32780;SDS011;19136;47.032;15.502;2024-03-06T02:03:36;40.35;;;18.10;;
32780;SDS011;19136;47.032;15.502;2024-03-06T02:06:02;41.28;;;18.35;;
32780;SDS011;19136;47.032;15.502;2024-03-06T02:08:28;42.05;;;17.92;;
32780;SDS011;19136;47.032;15.502;2024-03-06T02:10:53;40.55;;;19.48;;
32780;SDS011;19136;47.032;15.502;2024-03-06T02:13:19;46.83;;;19.13;;
32780;SDS011;19136;47.032;15.502;2024-03-06T02:15:44;41.22;;;18.88;;
32780;SDS011;19136;47.032;15.502;2024-03-06T02:18:10;38.90;;;17.95;;
32780;SDS011;19136;47.032;15.502;2024-03-06T02:20:39;36.42;;;18.17;;
32780;SDS011;19136;47.032;15.502;2024-03-06T02:23:07;40.15;;;18.23;;
32780;SDS011;19136;47.032;15.502;2024-03-06T02:25:33;40.25;;;18.73;;
32780;SDS011;19136;47.032;15.502;2024-03-06T02:27:58;39.58;;;18.30;;
32780;SDS011;19136;47.032;15.502;2024-03-06T02:30:27;39.08;;;18.38;;
32780;SDS011;19136;47.032;15.502;2024-03-06T02:32:52;43.03;;;18.75;;
32780;SDS011;19136;47.032;15.502;2024-03-06T02:35:18;40.67;;;20.50;;
32780;SDS011;19136;47.032;15.502;2024-03-06T02:37:43;57.63;;;24.65;;
32780;SDS011;19136;47.032;15.502;2024-03-06T02:40:09;51.53;;;23.20;;
32780;SDS011;19136;47.032;15.502;2024-03-06T02:42:37;53.40;;;22.60;;
32780;SDS011;19136;47.032;15.502;2024-03-06T02:45:06;40.38;;;19.98;;
32780;SDS011;19136;47.032;15.502;2024-03-06T02:47:34;38.58;;;20.08;;
32780;SDS011;19136;47.032;15.502;2024-03-06T02:49:59;47.42;;;20.42;;
32780;SDS011;19136;47.032;15.502;2024-03-06T02:52:25;43.03;;;19.38;;
32780;SDS011;19136;47.032;15.502;2024-03-06T02:54:51;42.28;;;18.52;;
32780;SDS011;19136;47.032;15.502;2024-03-06T02:57:16;38.50;;;18.67;;
32780;SDS011;19136;47.032;15.502;2024-03-06T02:59:42;47.28;;;21.20;;
32780;SDS011;19136;47.032;15.502;2024-03-06T03:02:07;50.42;;;20.13;;
32780;SDS011;19136;47.032;15.502;2024-03-06T03:04:33;46.97;;;20.67;;
32780;SDS011;19136;47.032;15.502;2024-03-06T03:06:58;48.15;;;20.90;;
32780;SDS011;19136;47.032;15.502;2024-03-06T03:09:24;42.85;;;18.85;;
32780;SDS011;19136;47.032;15.502;2024-03-06T03:11:49;48.85;;;19.88;;
32780;SDS011;19136;47.032;15.502;2024-03-06T03:14:15;48.95;;;20.08;;
32780;SDS011;19136;47.032;15.502;2024-03-06T03:16:40;44.22;;;21.02;;
32780;SDS011;19136;47.032;15.502;2024-03-06T03:19:07;44.88;;;20.40;;
32780;SDS011;19136;47.032;15.502;2024-03-06T03:21:33;46.42;;;21.15;;
32780;SDS011;19136;47.032;15.502;2024-03-06T03:23:59;42.33;;;20.30;;
32780;SDS011;19136;47.032;15.502;2024-03-06T03:26:24;45.72;;;19.92;;
32780;SDS011;19136;47.032;15.502;2024-03-06T03:28:50;49.20;;;21.02;;
32780;SDS011;19136;47.032;15.502;2024-03-06T03:31:15;45.53;;;20.45;;
32780;SDS011;19136;47.032;15.502;2024-03-06T03:33:41;46.40;;;19.92;;
32780;SDS011;19136;47.032;15.502;2024-03-06T03:36:07;46.25;;;20.05;;
32780;SDS011;19136;47.032;15.502;2024-03-06T03:38:33;40.75;;;19.83;;
32780;SDS011;19136;47.032;15.502;2024-03-06T03:41:01;44.83;;;20.77;;
32780;SDS011;19136;47.032;15.502;2024-03-06T03:43:29;44.85;;;21.00;;
32780;SDS011;19136;47.032;15.502;2024-03-06T03:45:54;45.85;;;21.27;;
32780;SDS011;19136;47.032;15.502;2024-03-06T03:48:20;41.53;;;19.60;;
32780;SDS011;19136;47.032;15.502;2024-03-06T03:50:45;50.00;;;21.58;;
32780;SDS011;19136;47.032;15.502;2024-03-06T03:53:11;49.38;;;21.40;;
32780;SDS011;19136;47.032;15.502;2024-03-06T03:55:37;45.90;;;21.35;;
32780;SDS011;19136;47.032;15.502;2024-03-06T03:58:02;43.08;;;19.70;;
32780;SDS011;19136;47.032;15.502;2024-03-06T04:00:29;49.88;;;20.17;;
32780;SDS011;19136;47.032;15.502;2024-03-06T04:02:56;48.35;;;21.67;;
32780;SDS011;19136;47.032;15.502;2024-03-06T04:05:22;41.95;;;19.58;;
32780;SDS011;19136;47.032;15.502;2024-03-06T04:07:48;46.63;;;20.75;;
32780;SDS011;19136;47.032;15.502;2024-03-06T04:10:13;49.35;;;21.33;;
32780;SDS011;19136;47.032;15.502;2024-03-06T04:12:39;49.88;;;21.02;;
32780;SDS011;19136;47.032;15.502;2024-03-06T04:15:04;46.42;;;20.75;;
32780;SDS011;19136;47.032;15.502;2024-03-06T04:17:30;45.05;;;20.60;;
32780;SDS011;19136;47.032;15.502;2024-03-06T04:19:56;45.17;;;20.55;;
32780;SDS011;19136;47.032;15.502;2024-03-06T04:22:21;54.53;;;21.25;;
32780;SDS011;19136;47.032;15.502;2024-03-06T04:24:47;45.47;;;21.85;;
32780;SDS011;19136;47.032;15.502;2024-03-06T04:27:13;56.58;;;24.08;;
32780;SDS011;19136;47.032;15.502;2024-03-06T04:29:38;49.55;;;23.15;;
32780;SDS011;19136;47.032;15.502;2024-03-06T04:32:04;43.78;;;20.65;;
32780;SDS011;19136;47.032;15.502;2024-03-06T04:34:29;52.00;;;23.08;;
32780;SDS011;19136;47.032;15.502;2024-03-06T04:36:55;48.17;;;21.88;;
32780;SDS011;19136;47.032;15.502;2024-03-06T04:39:21;59.92;;;23.75;;
32780;SDS011;19136;47.032;15.502;2024-03-06T04:41:47;53.25;;;24.90;;
32780;SDS011;19136;47.032;15.502;2024-03-06T04:44:12;58.75;;;24.45;;
32780;SDS011;19136;47.032;15.502;2024-03-06T04:46:38;52.58;;;23.80;;
32780;SDS011;19136;47.032;15.502;2024-03-06T04:49:03;71.68;;;30.08;;
32780;SDS011;19136;47.032;15.502;2024-03-06T04:51:29;68.85;;;29.75;;
32780;SDS011;19136;47.032;15.502;2024-03-06T04:53:54;64.78;;;29.52;;
32780;SDS011;19136;47.032;15.502;2024-03-06T04:56:19;68.07;;;27.85;;
32780;SDS011;19136;47.032;15.502;2024-03-06T04:58:46;63.42;;;25.52;;
32780;SDS011;19136;47.032;15.502;2024-03-06T05:01:12;53.25;;;24.92;;
32780;SDS011;19136;47.032;15.502;2024-03-06T05:03:38;53.03;;;24.75;;
32780;SDS011;19136;47.032;15.502;2024-03-06T05:06:04;58.88;;;25.30;;
32780;SDS011;19136;47.032;15.502;2024-03-06T05:08:30;61.90;;;25.08;;
32780;SDS011;19136;47.032;15.502;2024-03-06T05:10:56;58.90;;;25.58;;
32780;SDS011;19136;47.032;15.502;2024-03-06T05:13:22;56.03;;;24.17;;
32780;SDS011;19136;47.032;15.502;2024-03-06T05:15:47;56.88;;;25.80;;
32780;SDS011;19136;47.032;15.502;2024-03-06T05:18:13;57.97;;;24.65;;
32780;SDS011;19136;47.032;15.502;2024-03-06T05:20:38;52.90;;;24.35;;
32780;SDS011;19136;47.032;15.502;2024-03-06T05:23:04;54.42;;;24.80;;
32780;SDS011;19136;47.032;15.502;2024-03-06T05:25:29;67.72;;;27.10;;
32780;SDS011;19136;47.032;15.502;2024-03-06T05:27:55;56.67;;;22.70;;
32780;SDS011;19136;47.032;15.502;2024-03-06T05:30:20;59.65;;;25.42;;
32780;SDS011;19136;47.032;15.502;2024-03-06T05:32:45;53.83;;;24.60;;
32780;SDS011;19136;47.032;15.502;2024-03-06T05:35:14;58.55;;;25.23;;
32780;SDS011;19136;47.032;15.502;2024-03-06T05:37:40;54.20;;;25.50;;
32780;SDS011;19136;47.032;15.502;2024-03-06T05:40:05;59.92;;;25.08;;
32780;SDS011;19136;47.032;15.502;2024-03-06T05:42:31;53.95;;;24.90;;
32780;SDS011;19136;47.032;15.502;2024-03-06T05:44:57;55.58;;;25.13;;
32780;SDS011;19136;47.032;15.502;2024-03-06T05:47:25;60.70;;;25.63;;
32780;SDS011;19136;47.032;15.502;2024-03-06T05:49:51;53.92;;;24.52;;
32780;SDS011;19136;47.032;15.502;2024-03-06T05:52:17;60.20;;;25.75;;
32780;SDS011;19136;47.032;15.502;2024-03-06T05:54:42;57.55;;;27.67;;
32780;SDS011;19136;47.032;15.502;2024-03-06T05:57:08;66.43;;;26.90;;
32780;SDS011;19136;47.032;15.502;2024-03-06T05:59:33;67.10;;;28.75;;
32780;SDS011;19136;47.032;15.502;2024-03-06T06:02:01;66.30;;;27.52;;
32780;SDS011;19136;47.032;15.502;2024-03-06T06:04:26;62.20;;;27.85;;
32780;SDS011;19136;47.032;15.502;2024-03-06T06:06:52;58.53;;;27.35;;
32780;SDS011;19136;47.032;15.502;2024-03-06T06:09:17;59.30;;;28.08;;
32780;SDS011;19136;47.032;15.502;2024-03-06T06:11:43;60.55;;;26.40;;
32780;SDS011;19136;47.032;15.502;2024-03-06T06:14:09;57.97;;;24.58;;
32780;SDS011;19136;47.032;15.502;2024-03-06T06:16:38;70.95;;;29.40;;
32780;SDS011;19136;47.032;15.502;2024-03-06T06:19:04;67.30;;;26.45;;
32780;SDS011;19136;47.032;15.502;2024-03-06T06:21:29;53.67;;;24.88;;
32780;SDS011;19136;47.032;15.502;2024-03-06T06:23:55;56.17;;;27.00;;
32780;SDS011;19136;47.032;15.502;2024-03-06T06:26:21;57.05;;;25.38;;
32780;SDS011;19136;47.032;15.502;2024-03-06T06:28:47;59.25;;;25.25;;
32780;SDS011;19136;47.032;15.502;2024-03-06T06:31:12;60.88;;;26.98;;
32780;SDS011;19136;47.032;15.502;2024-03-06T06:33:38;58.45;;;26.30;;
32780;SDS011;19136;47.032;15.502;2024-03-06T06:36:03;57.75;;;25.98;;
32780;SDS011;19136;47.032;15.502;2024-03-06T06:38:29;58.33;;;26.50;;
32780;SDS011;19136;47.032;15.502;2024-03-06T06:40:55;57.97;;;26.85;;
32780;SDS011;19136;47.032;15.502;2024-03-06T06:43:20;57.30;;;25.42;;
32780;SDS011;19136;47.032;15.502;2024-03-06T06:45:46;54.83;;;25.42;;
32780;SDS011;19136;47.032;15.502;2024-03-06T06:48:11;58.33;;;26.08;;
32780;SDS011;19136;47.032;15.502;2024-03-06T06:50:37;59.08;;;25.45;;
32780;SDS011;19136;47.032;15.502;2024-03-06T06:53:03;62.72;;;25.38;;
32780;SDS011;19136;47.032;15.502;2024-03-06T06:55:29;62.92;;;25.50;;
32780;SDS011;19136;47.032;15.502;2024-03-06T06:57:54;61.67;;;26.73;;
32780;SDS011;19136;47.032;15.502;2024-03-06T07:00:22;55.65;;;24.60;;
32780;SDS011;19136;47.032;15.502;2024-03-06T07:02:48;59.38;;;26.05;;
32780;SDS011;19136;47.032;15.502;2024-03-06T07:05:14;63.53;;;25.83;;
32780;SDS011;19136;47.032;15.502;2024-03-06T07:07:40;56.08;;;26.42;;
32780;SDS011;19136;47.032;15.502;2024-03-06T07:10:06;68.97;;;27.65;;
32780;SDS011;19136;47.032;15.502;2024-03-06T07:12:32;61.05;;;26.60;;
32780;SDS011;19136;47.032;15.502;2024-03-06T07:14:57;55.00;;;26.45;;
32780;SDS011;19136;47.032;15.502;2024-03-06T07:17:23;56.03;;;26.23;;
32780;SDS011;19136;47.032;15.502;2024-03-06T07:19:49;55.55;;;25.95;;
32780;SDS011;19136;47.032;15.502;2024-03-06T07:22:14;50.20;;;23.92;;
32780;SDS011;19136;47.032;15.502;2024-03-06T07:24:40;57.58;;;25.83;;
32780;SDS011;19136;47.032;15.502;2024-03-06T07:27:06;50.00;;;25.38;;
32780;SDS011;19136;47.032;15.502;2024-03-06T07:29:34;47.95;;;23.95;;
32780;SDS011;19136;47.032;15.502;2024-03-06T07:32:00;66.63;;;24.88;;
32780;SDS011;19136;47.032;15.502;2024-03-06T07:34:25;59.20;;;25.77;;
32780;SDS011;19136;47.032;15.502;2024-03-06T07:36:52;51.35;;;24.45;;
32780;SDS011;19136;47.032;15.502;2024-03-06T07:39:21;51.63;;;23.08;;
32780;SDS011;19136;47.032;15.502;2024-03-06T07:41:46;46.15;;;23.35;;
32780;SDS011;19136;47.032;15.502;2024-03-06T07:44:12;47.67;;;23.33;;
32780;SDS011;19136;47.032;15.502;2024-03-06T07:46:38;47.50;;;21.13;;
32780;SDS011;19136;47.032;15.502;2024-03-06T07:49:03;49.47;;;21.42;;
32780;SDS011;19136;47.032;15.502;2024-03-06T07:51:33;43.30;;;22.30;;
32780;SDS011;19136;47.032;15.502;2024-03-06T07:53:58;44.30;;;22.20;;
32780;SDS011;19136;47.032;15.502;2024-03-06T07:56:24;43.92;;;21.80;;
32780;SDS011;19136;47.032;15.502;2024-03-06T07:58:50;53.75;;;22.75;;
32780;SDS011;19136;47.032;15.502;2024-03-06T08:01:16;47.97;;;22.55;;
32780;SDS011;19136;47.032;15.502;2024-03-06T08:03:41;50.20;;;22.75;;
32780;SDS011;19136;47.032;15.502;2024-03-06T08:06:11;50.25;;;22.25;;
32780;SDS011;19136;47.032;15.502;2024-03-06T08:08:36;52.50;;;21.90;;
32780;SDS011;19136;47.032;15.502;2024-03-06T08:11:05;45.70;;;22.30;;
32780;SDS011;19136;47.032;15.502;2024-03-06T08:13:30;46.00;;;21.80;;
32780;SDS011;19136;47.032;15.502;2024-03-06T08:15:55;54.13;;;23.15;;
32780;SDS011;19136;47.032;15.502;2024-03-06T08:18:21;46.33;;;22.10;;
32780;SDS011;19136;47.032;15.502;2024-03-06T08:20:46;54.78;;;23.63;;
32780;SDS011;19136;47.032;15.502;2024-03-06T08:23:12;46.13;;;21.27;;
32780;SDS011;19136;47.032;15.502;2024-03-06T08:25:38;50.13;;;22.35;;
32780;SDS011;19136;47.032;15.502;2024-03-06T08:28:03;45.90;;;20.55;;
32780;SDS011;19136;47.032;15.502;2024-03-06T08:30:31;50.45;;;22.45;;
32780;SDS011;19136;47.032;15.502;2024-03-06T08:32:56;45.35;;;21.88;;
32780;SDS011;19136;47.032;15.502;2024-03-06T08:35:22;46.25;;;21.90;;
32780;SDS011;19136;47.032;15.502;2024-03-06T08:37:49;44.45;;;22.20;;
32780;SDS011;19136;47.032;15.502;2024-03-06T08:40:14;47.28;;;21.60;;
32780;SDS011;19136;47.032;15.502;2024-03-06T08:42:40;49.13;;;22.10;;
32780;SDS011;19136;47.032;15.502;2024-03-06T08:45:07;45.28;;;20.92;;
32780;SDS011;19136;47.032;15.502;2024-03-06T08:47:33;43.47;;;21.33;;
32780;SDS011;19136;47.032;15.502;2024-03-06T08:49:59;39.80;;;20.38;;
32780;SDS011;19136;47.032;15.502;2024-03-06T08:52:24;44.20;;;20.20;;
32780;SDS011;19136;47.032;15.502;2024-03-06T08:54:50;44.22;;;21.33;;
32780;SDS011;19136;47.032;15.502;2024-03-06T08:57:15;46.05;;;22.35;;
32780;SDS011;19136;47.032;15.502;2024-03-06T08:59:41;48.13;;;20.98;;
32780;SDS011;19136;47.032;15.502;2024-03-06T09:02:15;44.28;;;21.60;;
32780;SDS011;19136;47.032;15.502;2024-03-06T09:04:44;45.60;;;22.52;;
32780;SDS011;19136;47.032;15.502;2024-03-06T09:07:09;47.83;;;22.77;;
32780;SDS011;19136;47.032;15.502;2024-03-06T09:09:35;43.45;;;22.17;;
32780;SDS011;19136;47.032;15.502;2024-03-06T09:12:02;52.65;;;22.48;;
32780;SDS011;19136;47.032;15.502;2024-03-06T09:14:29;49.35;;;21.75;;
32780;SDS011;19136;47.032;15.502;2024-03-06T09:16:55;47.97;;;22.25;;
32780;SDS011;19136;47.032;15.502;2024-03-06T09:19:20;47.47;;;23.05;;
32780;SDS011;19136;47.032;15.502;2024-03-06T09:21:46;50.33;;;23.38;;
32780;SDS011;19136;47.032;15.502;2024-03-06T09:24:11;47.10;;;25.27;;
32780;SDS011;19136;47.032;15.502;2024-03-06T09:26:37;54.72;;;25.40;;
32780;SDS011;19136;47.032;15.502;2024-03-06T09:29:02;51.72;;;24.33;;
32780;SDS011;19136;47.032;15.502;2024-03-06T09:31:28;50.42;;;24.50;;
32780;SDS011;19136;47.032;15.502;2024-03-06T09:33:53;59.35;;;25.95;;
32780;SDS011;19136;47.032;15.502;2024-03-06T09:36:19;50.50;;;25.75;;
32780;SDS011;19136;47.032;15.502;2024-03-06T09:38:44;55.88;;;25.92;;
32780;SDS011;19136;47.032;15.502;2024-03-06T09:41:09;51.22;;;25.67;;
32780;SDS011;19136;47.032;15.502;2024-03-06T09:43:35;53.15;;;25.80;;
32780;SDS011;19136;47.032;15.502;2024-03-06T09:46:01;51.85;;;25.73;;
32780;SDS011;19136;47.032;15.502;2024-03-06T09:48:30;49.17;;;24.35;;
32780;SDS011;19136;47.032;15.502;2024-03-06T09:51:01;54.70;;;25.10;;
32780;SDS011;19136;47.032;15.502;2024-03-06T09:53:27;53.42;;;24.40;;
32780;SDS011;19136;47.032;15.502;2024-03-06T09:55:53;49.90;;;23.42;;
32780;SDS011;19136;47.032;15.502;2024-03-06T09:58:19;46.45;;;23.63;;
32780;SDS011;19136;47.032;15.502;2024-03-06T10:00:45;46.40;;;22.23;;
32780;SDS011;19136;47.032;15.502;2024-03-06T10:03:12;52.20;;;24.60;;
32780;SDS011;19136;47.032;15.502;2024-03-06T10:05:38;42.95;;;22.90;;
32780;SDS011;19136;47.032;15.502;2024-03-06T10:08:04;44.72;;;23.42;;
32780;SDS011;19136;47.032;15.502;2024-03-06T10:10:30;49.50;;;23.67;;
32780;SDS011;19136;47.032;15.502;2024-03-06T10:12:55;46.35;;;24.33;;
32780;SDS011;19136;47.032;15.502;2024-03-06T10:15:22;42.97;;;22.35;;
32780;SDS011;19136;47.032;15.502;2024-03-06T10:17:48;51.45;;;24.15;;
32780;SDS011;19136;47.032;15.502;2024-03-06T10:20:23;44.05;;;22.17;;
32780;SDS011;19136;47.032;15.502;2024-03-06T10:22:49;50.90;;;23.52;;
32780;SDS011;19136;47.032;15.502;2024-03-06T10:25:18;50.75;;;24.05;;
32780;SDS011;19136;47.032;15.502;2024-03-06T10:27:43;53.25;;;23.27;;
32780;SDS011;19136;47.032;15.502;2024-03-06T10:30:09;44.95;;;23.75;;
32780;SDS011;19136;47.032;15.502;2024-03-06T10:32:38;47.85;;;23.77;;
32780;SDS011;19136;47.032;15.502;2024-03-06T10:35:04;53.65;;;23.73;;
32780;SDS011;19136;47.032;15.502;2024-03-06T10:37:31;48.45;;;24.42;;
32780;SDS011;19136;47.032;15.502;2024-03-06T10:40:01;50.10;;;24.35;;
32780;SDS011;19136;47.032;15.502;2024-03-06T10:42:31;56.08;;;26.25;;
32780;SDS011;19136;47.032;15.502;2024-03-06T10:44:58;46.40;;;25.63;;
32780;SDS011;19136;47.032;15.502;2024-03-06T10:47:24;60.47;;;27.85;;
32780;SDS011;19136;47.032;15.502;2024-03-06T10:49:51;56.03;;;26.15;;
32780;SDS011;19136;47.032;15.502;2024-03-06T10:52:19;51.83;;;27.23;;
32780;SDS011;19136;47.032;15.502;2024-03-06T10:54:44;59.55;;;28.15;;
32780;SDS011;19136;47.032;15.502;2024-03-06T10:57:11;55.22;;;28.20;;
32780;SDS011;19136;47.032;15.502;2024-03-06T10:59:37;57.55;;;28.35;;
32780;SDS011;19136;47.032;15.502;2024-03-06T11:02:03;62.88;;;28.88;;
32780;SDS011;19136;47.032;15.502;2024-03-06T11:04:31;55.15;;;27.08;;
32780;SDS011;19136;47.032;15.502;2024-03-06T11:07:00;55.67;;;27.13;;
32780;SDS011;19136;47.032;15.502;2024-03-06T11:09:27;55.55;;;24.95;;
32780;SDS011;19136;47.032;15.502;2024-03-06T11:11:53;51.17;;;25.00;;
32780;SDS011;19136;47.032;15.502;2024-03-06T11:14:23;53.33;;;27.45;;
32780;SDS011;19136;47.032;15.502;2024-03-06T11:19:27;59.08;;;27.23;;
32780;SDS011;19136;47.032;15.502;2024-03-06T11:21:53;54.65;;;27.45;;
32780;SDS011;19136;47.032;15.502;2024-03-06T11:24:22;52.95;;;25.10;;
32780;SDS011;19136;47.032;15.502;2024-03-06T11:26:48;49.97;;;26.35;;
32780;SDS011;19136;47.032;15.502;2024-03-06T11:29:17;51.63;;;25.83;;
32780;SDS011;19136;47.032;15.502;2024-03-06T11:32:00;57.83;;;24.67;;
32780;SDS011;19136;47.032;15.502;2024-03-06T11:34:26;48.55;;;23.95;;
32780;SDS011;19136;47.032;15.502;2024-03-06T11:36:56;49.50;;;25.27;;
32780;SDS011;19136;47.032;15.502;2024-03-06T11:39:22;49.47;;;25.17;;
32780;SDS011;19136;47.032;15.502;2024-03-06T11:41:49;52.03;;;25.17;;
32780;SDS011;19136;47.032;15.502;2024-03-06T11:44:15;52.83;;;26.02;;
32780;SDS011;19136;47.032;15.502;2024-03-06T11:54:08;52.97;;;23.83;;
32780;SDS011;19136;47.032;15.502;2024-03-06T11:56:33;47.67;;;22.33;;
32780;SDS011;19136;47.032;15.502;2024-03-06T11:58:58;48.42;;;26.08;;
32780;SDS011;19136;47.032;15.502;2024-03-06T12:01:24;56.95;;;24.20;;
32780;SDS011;19136;47.032;15.502;2024-03-06T12:03:49;43.70;;;23.67;;
32780;SDS011;19136;47.032;15.502;2024-03-06T12:06:15;50.85;;;24.77;;
32780;SDS011;19136;47.032;15.502;2024-03-06T12:08:42;46.38;;;23.75;;
32780;SDS011;19136;47.032;15.502;2024-03-06T12:11:07;44.55;;;23.48;;
32780;SDS011;19136;47.032;15.502;2024-03-06T12:13:33;52.10;;;25.25;;
32780;SDS011;19136;47.032;15.502;2024-03-06T12:16:03;53.30;;;23.65;;
32780;SDS011;19136;47.032;15.502;2024-03-06T12:18:29;55.95;;;26.58;;
32780;SDS011;19136;47.032;15.502;2024-03-06T12:20:54;49.55;;;25.10;;
32780;SDS011;19136;47.032;15.502;2024-03-06T12:23:23;45.53;;;24.65;;
32780;SDS011;19136;47.032;15.502;2024-03-06T12:25:50;52.28;;;24.08;;
32780;SDS011;19136;47.032;15.502;2024-03-06T12:28:16;44.30;;;23.83;;
32780;SDS011;19136;47.032;15.502;2024-03-06T12:30:49;50.55;;;24.88;;
32780;SDS011;19136;47.032;15.502;2024-03-06T12:33:16;50.63;;;25.55;;
32780;SDS011;19136;47.032;15.502;2024-03-06T12:35:41;48.17;;;24.83;;
32780;SDS011;19136;47.032;15.502;2024-03-06T12:38:14;44.88;;;24.08;;
32780;SDS011;19136;47.032;15.502;2024-03-06T12:40:39;54.10;;;26.00;;
32780;SDS011;19136;47.032;15.502;2024-03-06T12:43:05;48.78;;;25.40;;
32780;SDS011;19136;47.032;15.502;2024-03-06T12:45:32;53.08;;;24.33;;
32780;SDS011;19136;47.032;15.502;2024-03-06T12:47:58;47.67;;;24.75;;
32780;SDS011;19136;47.032;15.502;2024-03-06T12:50:23;46.53;;;22.70;;
32780;SDS011;19136;47.032;15.502;2024-03-06T12:52:48;38.72;;;21.55;;
32780;SDS011;19136;47.032;15.502;2024-03-06T12:55:14;42.30;;;22.98;;
32780;SDS011;19136;47.032;15.502;2024-03-06T12:57:40;45.60;;;22.38;;
32780;SDS011;19136;47.032;15.502;2024-03-06T13:00:05;55.60;;;24.30;;
32780;SDS011;19136;47.032;15.502;2024-03-06T13:02:44;43.30;;;22.35;;
32780;SDS011;19136;47.032;15.502;2024-03-06T13:05:10;47.70;;;24.58;;
32780;SDS011;19136;47.032;15.502;2024-03-06T13:07:35;47.40;;;22.05;;
32780;SDS011;19136;47.032;15.502;2024-03-06T13:10:02;42.65;;;23.33;;
32780;SDS011;19136;47.032;15.502;2024-03-06T13:12:27;39.97;;;21.20;;
32780;SDS011;19136;47.032;15.502;2024-03-06T13:14:53;42.83;;;20.48;;
32780;SDS011;19136;47.032;15.502;2024-03-06T13:17:19;42.20;;;21.48;;
32780;SDS011;19136;47.032;15.502;2024-03-06T13:19:44;42.45;;;21.55;;
32780;SDS011;19136;47.032;15.502;2024-03-06T13:22:10;42.50;;;23.45;;
32780;SDS011;19136;47.032;15.502;2024-03-06T13:24:35;47.45;;;24.67;;
32780;SDS011;19136;47.032;15.502;2024-03-06T13:27:01;45.65;;;23.27;;
32780;SDS011;19136;47.032;15.502;2024-03-06T13:29:27;44.17;;;22.38;;
32780;SDS011;19136;47.032;15.502;2024-03-06T13:31:52;41.67;;;21.40;;
32780;SDS011;19136;47.032;15.502;2024-03-06T13:34:18;41.55;;;22.10;;
32780;SDS011;19136;47.032;15.502;2024-03-06T13:36:43;42.70;;;21.50;;
32780;SDS011;19136;47.032;15.502;2024-03-06T13:39:09;40.45;;;21.20;;
32780;SDS011;19136;47.032;15.502;2024-03-06T13:41:34;36.42;;;20.60;;
32780;SDS011;19136;47.032;15.502;2024-03-06T13:44:00;41.33;;;22.23;;
32780;SDS011;19136;47.032;15.502;2024-03-06T13:46:25;43.67;;;21.95;;
32780;SDS011;19136;47.032;15.502;2024-03-06T13:48:50;45.05;;;22.67;;
32780;SDS011;19136;47.032;15.502;2024-03-06T13:51:16;41.42;;;22.48;;
32780;SDS011;19136;47.032;15.502;2024-03-06T13:53:41;38.88;;;20.73;;
32780;SDS011;19136;47.032;15.502;2024-03-06T13:56:07;42.20;;;22.92;;
32780;SDS011;19136;47.032;15.502;2024-03-06T13:58:33;40.78;;;21.88;;
32780;SDS011;19136;47.032;15.502;2024-03-06T14:01:00;49.40;;;22.92;;
32780;SDS011;19136;47.032;15.502;2024-03-06T14:03:25;43.35;;;21.40;;
32780;SDS011;19136;47.032;15.502;2024-03-06T14:05:51;42.30;;;22.60;;
32780;SDS011;19136;47.032;15.502;2024-03-06T14:08:16;42.90;;;21.95;;
32780;SDS011;19136;47.032;15.502;2024-03-06T14:10:42;41.42;;;21.70;;
32780;SDS011;19136;47.032;15.502;2024-03-06T14:13:08;43.50;;;20.27;;